Time;durP1;ratioP1;P1;durP2;ratioP2;P2;SDS_P1;SDS_P2;PMS_P1;PMS_P2;Temp;Humidity;BMP_temperature;BMP_pressure;BME280_temperature;BME280_humidity;BME280_pressure;Samples;Min_cycle;Max_cycle;Signal;HPM_P1;HPM_P2
2024/01/04 19:15:44;;;;;;;1.70;0.80;;;;;;;12.93;59.46;98272.41;6193646;22;20252;31
2024/01/04 19:18:10;;;;;;;2.17;0.77;;;;;;;13.00;58.94;98278.88;6157037;23;20623;-88
2024/01/04 19:20:36;;;;;;;2.73;0.90;;;;;;;13.20;58.29;98282.66;6156958;23;20175;-87
2024/01/04 19:23:07;;;;;;;1.80;0.80;;;;;;;13.06;58.44;98282.84;6153932;23;20174;-90
2024/01/04 19:25:32;;;;;;;2.23;0.90;;;;;;;13.24;58.07;98286.72;6156538;23;20202;-87
2024/01/04 19:28:00;;;;;;;1.83;0.87;;;;;;;13.41;57.53;98288.91;6154097;23;20583;-87
2024/01/04 19:30:33;;;;;;;2.00;0.97;;;;;;;13.34;57.47;98292.94;6155448;23;20143;-87
2024/01/04 19:32:58;;;;;;;1.90;0.70;;;;;;;13.15;58.37;98297.97;6153645;23;20137;-87
2024/01/04 19:35:24;;;;;;;2.27;1.13;;;;;;;13.26;58.00;98296.16;6155791;23;20556;-87
2024/01/04 19:37:49;;;;;;;1.23;0.60;;;;;;;13.13;58.48;98292.81;6156055;23;20531;-88
2024/01/04 19:40:15;;;;;;;1.70;0.67;;;;;;;13.18;58.12;98298.53;6155398;23;20505;-88
2024/01/04 19:42:44;;;;;;;2.40;1.23;;;;;;;13.31;57.82;98296.66;6155971;23;20543;-86
2024/01/04 19:45:10;;;;;;;2.10;0.60;;;;;;;13.51;57.19;98300.41;6156027;23;20230;-87
2024/01/04 19:47:36;;;;;;;2.30;0.70;;;;;;;13.44;57.23;98304.47;6155253;23;20223;-86
2024/01/04 19:50:01;;;;;;;1.80;0.77;;;;;;;13.43;57.50;98300.16;6154108;23;20233;-86
2024/01/04 19:52:37;;;;;;;2.20;0.83;;;;;;;13.49;56.89;98291.78;6146693;23;20210;-88
2024/01/04 19:55:12;;;;;;;1.33;0.53;;;;;;;13.39;57.22;98301.34;6155192;23;20133;-87
2024/01/04 19:57:40;;;;;;;3.23;1.90;;;;;;;13.48;57.02;98313.78;6155551;23;20226;-87
2024/01/04 20:00:17;;;;;;;2.83;1.27;;;;;;;13.51;56.57;98311.78;6155628;23;20262;-89
2024/01/04 20:02:44;;;;;;;6.30;0.93;;;;;;;13.34;56.92;98320.09;6155562;23;20157;-88
2024/01/04 20:05:10;;;;;;;0.80;0.53;;;;;;;13.35;57.23;98334.13;6154555;23;20207;-87
2024/01/04 20:07:35;;;;;;;1.50;0.50;;;;;;;13.38;56.72;98342.63;6155035;23;20251;-86
2024/01/04 20:10:01;;;;;;;0.73;0.50;;;;;;;13.44;56.81;98350.03;6154725;23;20274;-86
2024/01/04 20:12:29;;;;;;;2.03;0.80;;;;;;;13.54;56.70;98350.19;6153829;23;20151;-88
2024/01/04 20:14:56;;;;;;;1.27;0.63;;;;;;;13.78;56.01;98350.09;6154688;23;20159;-86
2024/01/04 20:17:22;;;;;;;1.77;0.90;;;;;;;13.97;54.94;98345.88;6128736;23;20189;-86
2024/01/04 20:19:49;;;;;;;0.80;0.40;;;;;;;13.98;54.75;98358.09;6154030;23;20234;-86
2024/01/04 20:22:14;;;;;;;1.73;1.10;;;;;;;13.87;55.03;98355.47;6155298;23;20229;-87
2024/01/04 20:24:41;;;;;;;2.23;0.80;;;;;;;13.57;55.90;98355.22;6155568;23;20586;-88
2024/01/04 20:27:06;;;;;;;1.20;0.67;;;;;;;13.70;55.76;98361.22;6155013;23;20155;-86
2024/01/04 20:29:32;;;;;;;3.00;1.63;;;;;;;13.61;56.05;98364.53;6155540;23;20180;-87
2024/01/04 20:31:58;;;;;;;3.53;0.83;;;;;;;13.50;56.54;98362.72;6155431;23;20147;-86
2024/01/04 20:34:24;;;;;;;1.40;0.60;;;;;;;13.26;57.34;98380.38;6155126;23;20205;-86
2024/01/04 20:36:54;;;;;;;2.70;0.70;;;;;;;13.27;57.24;98381.22;6154409;23;20191;-86
2024/01/04 20:39:20;;;;;;;3.70;0.70;;;;;;;13.47;56.78;98385.81;6155377;23;20207;-89
2024/01/04 20:41:46;;;;;;;1.57;0.70;;;;;;;13.31;57.61;98387.97;6155038;23;20151;-86
2024/01/04 20:44:13;;;;;;;1.97;0.70;;;;;;;13.54;56.90;98400.22;6155064;23;20451;-87
2024/01/04 20:46:38;;;;;;;1.93;0.83;;;;;;;13.49;56.72;98402.34;6155466;23;20653;-87
2024/01/04 20:49:04;;;;;;;1.73;0.80;;;;;;;13.57;56.51;98415.78;6154867;23;20182;-87
2024/01/04 20:51:29;;;;;;;3.37;1.00;;;;;;;13.55;56.47;98412.41;6155351;23;20158;-86
2024/01/04 20:53:57;;;;;;;3.87;1.03;;;;;;;13.42;56.68;98401.13;6155265;23;20583;-87
2024/01/04 20:56:23;;;;;;;2.63;1.03;;;;;;;13.42;56.73;98399.34;6155430;23;20151;-86
2024/01/04 20:58:48;;;;;;;1.30;0.67;;;;;;;13.53;56.15;98412.53;6154721;23;20549;-88
2024/01/04 21:01:14;;;;;;;1.43;0.73;;;;;;;13.41;56.61;98412.63;6154093;23;20167;-87
2024/01/04 21:03:40;;;;;;;2.43;0.73;;;;;;;13.44;56.53;98415.03;6130128;23;20487;-87
2024/01/04 21:06:06;;;;;;;4.00;0.80;;;;;;;13.42;56.65;98406.38;6154452;23;20225;-87
2024/01/04 21:08:32;;;;;;;2.53;0.77;;;;;;;13.03;57.87;98419.84;6155483;23;20495;-87
2024/01/04 21:10:58;;;;;;;1.97;0.80;;;;;;;12.99;58.16;98428.94;6155572;23;20165;-86
2024/01/04 21:13:23;;;;;;;1.37;0.80;;;;;;;12.79;58.76;98439.13;6155602;23;20254;-86
2024/01/04 21:15:49;;;;;;;7.37;0.80;;;;;;;12.97;58.30;98436.94;6155622;23;20467;-87
2024/01/04 21:18:14;;;;;;;1.33;0.60;;;;;;;12.88;58.79;98438.47;6155766;23;20163;-86
2024/01/04 21:20:43;;;;;;;1.60;0.70;;;;;;;12.92;58.42;98429.38;6155700;23;20253;-86
2024/01/04 21:23:11;;;;;;;1.50;0.67;;;;;;;12.87;58.50;98436.75;6155593;23;20230;-86
2024/01/04 21:25:37;;;;;;;1.63;0.60;;;;;;;12.91;58.21;98432.13;6156050;23;20147;-86
2024/01/04 21:28:02;;;;;;;5.93;0.67;;;;;;;12.83;58.25;98439.75;6155828;23;20230;-88
2024/01/04 21:30:28;;;;;;;2.10;0.73;;;;;;;12.81;58.48;98437.22;6155687;23;20229;-88
2024/01/04 21:32:53;;;;;;;2.57;1.03;;;;;;;12.98;57.33;98435.13;6155396;23;20186;-87
2024/01/04 21:35:19;;;;;;;0.83;0.43;;;;;;;12.94;57.46;98443.25;6155648;23;20202;-85
2024/01/04 21:37:45;;;;;;;0.97;0.50;;;;;;;12.97;57.00;98436.09;6155662;23;20151;-87
2024/01/04 21:40:11;;;;;;;1.33;0.57;;;;;;;12.93;57.39;98433.69;6155335;23;20186;-86
2024/01/04 21:42:36;;;;;;;1.63;0.60;;;;;;;12.83;57.72;98442.38;6156002;23;20579;-86
2024/01/04 21:45:02;;;;;;;1.67;0.63;;;;;;;13.08;57.10;98423.88;6155875;23;20156;-87
2024/01/04 21:47:27;;;;;;;1.03;0.57;;;;;;;13.19;56.54;98428.31;6155615;23;20231;-86
2024/01/04 21:49:53;;;;;;;1.40;0.70;;;;;;;13.24;55.79;98439.34;6154312;23;20149;-87
2024/01/04 21:52:18;;;;;;;1.57;0.67;;;;;;;13.05;56.46;98449.53;6155634;23;20147;-87
2024/01/04 21:54:44;;;;;;;1.87;0.97;;;;;;;12.81;57.28;98437.22;6154641;23;20490;-87
2024/01/04 21:57:09;;;;;;;1.90;0.63;;;;;;;12.76;57.54;98464.81;6157507;23;20651;-91
2024/01/04 21:59:35;;;;;;;1.07;0.67;;;;;;;12.76;57.80;98447.22;6155895;23;20245;-85
2024/01/04 22:02:00;;;;;;;1.07;0.77;;;;;;;12.55;58.60;98455.84;6157315;23;20584;-89
2024/01/04 22:04:26;;;;;;;1.33;0.70;;;;;;;12.67;58.23;98445.28;6155380;23;20496;-87
2024/01/04 22:06:51;;;;;;;2.07;0.80;;;;;;;12.74;58.04;98451.75;6157581;23;20147;-89
2024/01/04 22:09:17;;;;;;;4.10;1.30;;;;;;;12.96;57.46;98437.91;6157376;23;20475;-87
2024/01/04 22:11:43;;;;;;;2.80;1.37;;;;;;;13.09;56.59;98430.81;6131463;23;20162;-86
2024/01/04 22:14:09;;;;;;;1.40;0.63;;;;;;;12.82;57.30;98448.56;6157076;23;20151;-87
2024/01/04 22:16:36;;;;;;;1.87;0.90;;;;;;;12.97;57.34;98451.91;6157191;23;20163;-87
2024/01/04 22:19:03;;;;;;;1.70;0.90;;;;;;;13.00;56.95;98454.31;6156884;23;20185;-88
2024/01/04 22:21:28;;;;;;;1.30;0.60;;;;;;;13.02;56.73;98436.59;6157311;23;20156;-88
2024/01/04 22:23:54;;;;;;;1.17;0.67;;;;;;;12.91;56.61;98454.03;6156894;23;20611;-90
2024/01/04 22:26:20;;;;;;;2.67;0.90;;;;;;;12.99;56.09;98455.25;6153218;23;20165;-88
2024/01/04 22:28:45;;;;;;;6.43;3.00;;;;;;;12.80;56.79;98469.72;6156790;23;20210;-88
2024/01/04 22:31:11;;;;;;;2.67;1.37;;;;;;;13.03;55.54;98465.41;6157103;23;20154;-90
2024/01/04 22:33:37;;;;;;;3.70;1.40;;;;;;;13.20;55.02;98461.59;6156895;23;20151;-88
2024/01/04 22:36:02;;;;;;;1.47;0.50;;;;;;;13.00;55.50;98467.47;6157110;23;20160;-89
2024/01/04 22:38:28;;;;;;;5.83;1.97;;;;;;;13.10;55.26;98473.75;6155664;23;20487;-89
2024/01/04 22:40:53;;;;;;;13.80;3.63;;;;;;;13.26;54.85;98485.66;6157385;23;20160;-88
2024/01/04 22:43:19;;;;;;;3.93;1.43;;;;;;;13.37;54.15;98474.34;6157038;23;20154;-88
2024/01/04 22:45:44;;;;;;;2.90;1.40;;;;;;;13.23;54.27;98485.06;6131398;23;20529;-89
2024/01/04 22:48:10;;;;;;;10.30;4.07;;;;;;;13.24;54.28;98476.19;6131256;23;20245;-90
2024/01/04 22:50:35;;;;;;;1.90;1.00;;;;;;;13.26;54.16;98482.22;6156995;23;20170;-89
2024/01/04 22:53:01;;;;;;;4.23;0.90;;;;;;;13.51;53.23;98469.72;6156914;23;20473;-88
2024/01/04 22:55:27;;;;;;;1.60;0.70;;;;;;;13.49;53.10;98474.25;6131206;23;20488;-89
2024/01/04 22:57:53;;;;;;;0.93;0.63;;;;;;;13.38;53.75;98482.13;6131250;23;20155;-88
2024/01/04 23:00:19;;;;;;;1.20;0.70;;;;;;;13.41;53.08;98475.81;6156434;23;20186;-88
2024/01/04 23:02:46;;;;;;;1.40;0.60;;;;;;;13.37;53.30;98490.13;6156876;23;20151;-90
2024/01/04 23:05:11;;;;;;;1.47;0.60;;;;;;;13.38;53.35;98481.28;6156606;23;20171;-87
2024/01/04 23:07:37;;;;;;;2.37;1.00;;;;;;;13.42;53.24;98480.94;6156579;23;20147;-88
2024/01/04 23:10:03;;;;;;;1.80;0.60;;;;;;;13.54;53.01;98487.94;6157810;23;20147;-89
2024/01/04 23:12:31;;;;;;;0.80;0.60;;;;;;;13.52;53.03;98497.72;6131027;23;20163;-88
2024/01/04 23:14:56;;;;;;;1.60;0.47;;;;;;;13.34;53.26;98507.00;6156735;23;20214;-89
2024/01/04 23:17:25;;;;;;;1.93;0.80;;;;;;;13.30;53.43;98504.69;6155477;23;20171;-88
2024/01/04 23:19:51;;;;;;;4.20;1.13;;;;;;;13.30;53.79;98510.81;6156518;23;20217;-87
2024/01/04 23:22:17;;;;;;;1.43;0.70;;;;;;;13.38;53.23;98515.50;6156630;23;20230;-89
2024/01/04 23:24:43;;;;;;;1.67;0.77;;;;;;;13.37;53.13;98517.28;6156505;23;20151;-89
2024/01/04 23:27:09;;;;;;;5.87;0.97;;;;;;;13.39;53.18;98499.59;6156381;23;20218;-88
2024/01/04 23:29:35;;;;;;;1.00;0.50;;;;;;;13.59;52.42;98510.44;6156519;23;20496;-88
2024/01/04 23:32:00;;;;;;;1.47;0.80;;;;;;;13.59;52.11;98502.53;6156541;23;20239;-88
2024/01/04 23:34:26;;;;;;;1.60;0.50;;;;;;;13.78;51.67;98511.59;6156881;23;20210;-88
2024/01/04 23:36:51;;;;;;;1.93;0.80;;;;;;;13.73;52.01;98520.78;6156484;23;20151;-88
2024/01/04 23:39:17;;;;;;;3.13;0.50;;;;;;;13.68;51.87;98531.66;6156102;23;20254;-88
2024/01/04 23:41:42;;;;;;;1.37;0.70;;;;;;;13.65;52.07;98537.16;6130990;23;20166;-87
2024/01/04 23:44:08;;;;;;;1.43;0.70;;;;;;;13.73;52.04;98542.69;6156356;23;20158;-89
2024/01/04 23:46:33;;;;;;;1.60;0.67;;;;;;;13.53;52.02;98551.22;6155034;23;20161;-88
2024/01/04 23:48:59;;;;;;;1.77;0.97;;;;;;;13.69;51.84;98541.25;6156447;23;20151;-88
2024/01/04 23:51:24;;;;;;;1.53;0.70;;;;;;;13.59;52.04;98552.56;6156306;23;20469;-88
2024/01/04 23:53:50;;;;;;;1.67;0.67;;;;;;;13.61;52.24;98554.13;6156228;23;20201;-88
2024/01/04 23:56:15;;;;;;;1.10;0.60;;;;;;;13.64;51.49;98567.09;6155109;23;20178;-88
2024/01/04 23:58:41;;;;;;;1.93;0.60;;;;;;;13.71;51.30;98568.28;6130501;23;20170;-88
